Seven Seas Voyager — C6SW3 — position and weather

sailwx.info

Track history (hours):
 
Tides and Currents Weather Stations Pressure Air Temp Water Temp Dewpoint Dewpoint Depression Visibility Wind Speed Wind Dir Waves Ship Positions

Seven Seas Voyager

Last reported at 2018-Jul-22 02:13 UTC. Time now 2018-Jul-22 07:06 UTC.
Position N 43°22' E 006°55'.

Length 205 m; draft 7 m.

Type: Ship. MMSI: 31151000.

Date/timePositionNaut miles runAvg speedWind from/ knotsBaromVisibWave heightAir tempDewpointWater temp
2018-Jul-22 02:13N 43°22' E 006°55'1 6.1
2018-Jul-22 02:00N 43°23' E 006°57'3 6.2
2018-Jul-22 01:30N 43°24' E 007°01'3 6.3
2018-Jul-22 01:00N 43°25' E 007°05'3 6.4
2018-Jul-22 00:30N 43°26' E 007°09'3 7.0
2018-Jul-22 00:00N 43°28' E 007°13'4 7.1
2018-Jul-21 23:30N 43°30' E 007°17'3 7.0
2018-Jul-21 23:00N 43°33' E 007°21'3 6.5
2018-Jul-21 22:30N 43°35' E 007°23'3 6.4
2018-Jul-21 22:00N 43°38' E 007°25'3 6.3
2018-Jul-21 21:30N 43°41' E 007°27'3 5.7
2018-Jul-21 21:00N 43°44' E 007°27'0 0.5
2018-Jul-21 20:28N 43°44' E 007°27'0 0.1
2018-Jul-21 19:52N 43°44' E 007°27'0 0.0
2018-Jul-21 19:28N 43°44' E 007°27'0 0.0
2018-Jul-21 18:58N 43°44' E 007°27'0 0.0
2018-Jul-21 18:28N 43°44' E 007°27'0 0.2
2018-Jul-21 18:15N 43°44' E 007°26'1 2.2
2018-Jul-21 18:00N 43°44' E 007°26'114.6
2018-Jul-21 17:58N 43°44' E 007°27'0 1.0
2018-Jul-21 17:30N 43°44' E 007°26'015.0
2018-Jul-21 17:28N 43°44' E 007°27'0 0.9
2018-Jul-21 17:25N 43°44' E 007°26'0 0.7
2018-Jul-21 17:00N 43°44' E 007°26'0 9.6
2018-Jul-21 16:58N 43°44' E 007°26'11064.7
2018-Jul-21 16:58N 43°44' E 007°27'0 0.2
2018-Jul-21 16:28N 43°44' E 007°26'012.4
2018-Jul-21 16:28N 43°44' E 007°27'1 4.8
2018-Jul-21 16:20N 43°44' E 007°26'0 0.5
2018-Jul-21 16:00N 43°44' E 007°26'046.9
2018-Jul-21 16:00N 43°44' E 007°26'0 4.1
2018-Jul-21 15:58N 43°44' E 007°27'1 1.2
2018-Jul-21 15:30N 43°44' E 007°26'056.5
2018-Jul-21 15:30N 43°44' E 007°26'113.1
2018-Jul-21 15:28N 43°44' E 007°27'1 1.2
2018-Jul-21 15:00N 43°44' E 007°26'112.0
2018-Jul-21 14:58N 43°44' E 007°27'142.0
2018-Jul-21 14:57N 43°44' E 007°26'0 1.0
2018-Jul-21 14:30N 43°44' E 007°26'056.9
2018-Jul-21 14:30N 43°44' E 007°26'116.8
2018-Jul-21 14:28N 43°44' E 007°27'0 0.1
2018-Jul-21 13:59N 43°44' E 007°26'0 0.7
2018-Jul-21 13:30N 43°44' E 007°26'027.6
2018-Jul-21 13:29N 43°44' E 007°27'0 1.3
2018-Jul-21 13:28N 43°44' E 007°27'1 1.4
2018-Jul-21 13:00N 43°44' E 007°26'113.1
2018-Jul-21 12:58N 43°44' E 007°27'026.8
2018-Jul-21 12:58N 43°44' E 007°27'0 0.1
2018-Jul-21 12:28N 43°44' E 007°27'1 8.8
2018-Jul-21 12:23N 43°44' E 007°26'0 1.1
2018-Jul-21 11:59N 43°44' E 007°26'011.8
2018-Jul-21 11:58N 43°44' E 007°27'0 0.1
2018-Jul-21 11:28N 43°44' E 007°27'0 4.1
2018-Jul-21 11:28N 43°44' E 007°27'0 0.0
2018-Jul-21 10:58N 43°44' E 007°27'1 7.4
2018-Jul-21 10:53N 43°44' E 007°26'0 0.6
2018-Jul-21 10:30N 43°44' E 007°26'0 9.2
2018-Jul-21 10:28N 43°44' E 007°27'0 0.1
2018-Jul-21 10:00N 43°44' E 007°27'0 6.5
2018-Jul-21 09:58N 43°44' E 007°26'022.7
2018-Jul-21 09:58N 43°44' E 007°27'0 0.1
2018-Jul-21 09:30N 43°44' E 007°27'188.4
2018-Jul-21 09:29N 43°44' E 007°26'119.9
2018-Jul-21 09:28N 43°44' E 007°27'1 1.5
2018-Jul-21 09:00N 43°44' E 007°26'116.4
2018-Jul-21 08:58N 43°44' E 007°27'012.5
2018-Jul-21 08:56N 43°44' E 007°26'0 1.1
2018-Jul-21 08:29N 43°44' E 007°26'121.7
2018-Jul-21 08:28N 43°44' E 007°27'0 0.5
2018-Jul-21 08:23N 43°44' E 007°27'1 1.7
2018-Jul-21 07:58N 43°44' E 007°26'153.5
2018-Jul-21 07:58N 43°44' E 007°27'0 0.3
2018-Jul-21 07:51N 43°44' E 007°27'0 0.4
2018-Jul-21 07:30N 43°44' E 007°27'0 2.3
2018-Jul-21 07:28N 43°44' E 007°27'0 6.1
2018-Jul-21 07:28N 43°44' E 007°27'0 0.1
2018-Jul-21 07:00N 43°44' E 007°27'1 8.4
2018-Jul-21 06:56N 43°44' E 007°26'1 3.6
2018-Jul-21 06:46N 43°44' E 007°27'0 0.2
2018-Jul-21 06:30N 43°44' E 007°27'0 0.5
2018-Jul-21 06:29N 43°44' E 007°27'0 1.4
2018-Jul-21 06:28N 43°44' E 007°27'0 0.1
2018-Jul-21 06:00N 43°44' E 007°27'0 1.0
2018-Jul-21 05:58N 43°44' E 007°27'111.0
2018-Jul-21 05:54N 43°44' E 007°26'1 1.7
2018-Jul-21 05:30N 43°44' E 007°27'0 1.8
2018-Jul-21 05:28N 43°44' E 007°27'2 3.8
2018-Jul-21 05:00N 43°44' E 007°29'4 7.6
2018-Jul-21 04:29N 43°43' E 007°34'4 7.5
2018-Jul-21 03:59N 43°42' E 007°39'16 7.7
2018-Jul-21 01:57N 43°38' E 008°00'4 8.1
2018-Jul-21 01:29N 43°37' E 008°05'1 2.9
2018-Jul-21 01:00N 43°36' E 008°06'4875.0 180 / 111011.010.8 24.021.1
2018-Jul-21 00:59N 43°37' E 008°11'4 8.8
2018-Jul-21 00:30N 43°38' E 008°17'4 8.8
2018-Jul-21 00:00N 43°38' E 008°23'4353.5
2018-Jul-21 00:00N 43°36' E 008°18'917.4 180 / 181011.010.8 24.021.1
2018-Jul-20 23:30N 43°41' E 008°28'4 8.3
2018-Jul-20 23:00N 43°44' E 008°32'4 8.3
2018-Jul-20 22:30N 43°47' E 008°35'4 8.3
2018-Jul-20 22:00N 43°50' E 008°40'4 8.2
2018-Jul-20 21:30N 43°53' E 008°44'4 8.3
2018-Jul-20 21:00N 43°56' E 008°48'4 8.2
2018-Jul-20 20:30N 43°58' E 008°52'4 8.1
2018-Jul-20 20:00N 44°01' E 008°56'4 7.7
2018-Jul-20 19:30N 44°04' E 008°60'4 7.7
2018-Jul-20 19:00N 44°07' E 009°03'4 7.9
2018-Jul-20 18:30N 44°10' E 009°07'4 7.9
2018-Jul-20 18:00N 44°12' E 009°11'4 7.8
2018-Jul-20 17:30N 44°15' E 009°15'3 6.1
2018-Jul-20 17:00N 44°18' E 009°14'0 0.1
2018-Jul-20 16:30N 44°18' E 009°14'0 0.1
2018-Jul-20 16:00N 44°18' E 009°14'0 0.0
2018-Jul-20 15:30N 44°18' E 009°14'0 0.0
2018-Jul-20 15:00N 44°18' E 009°14'0 0.0
2018-Jul-20 14:30N 44°18' E 009°14'0 0.0
2018-Jul-20 14:00N 44°18' E 009°14'0 0.0
2018-Jul-20 13:18N 44°18' E 009°14'0 0.0
2018-Jul-20 12:12N 44°18' E 009°14'0 0.1
2018-Jul-20 12:00N 44°18' E 009°14'0 0.0
2018-Jul-20 11:30N 44°18' E 009°14'0 0.0
2018-Jul-20 11:00N 44°18' E 009°14'0 0.0
2018-Jul-20 10:24N 44°18' E 009°14'0 0.0
2018-Jul-20 09:54N 44°18' E 009°14'0 0.0
2018-Jul-20 09:30N 44°18' E 009°14'0 0.0
2018-Jul-20 09:00N 44°18' E 009°14'0 0.0
2018-Jul-20 08:30N 44°18' E 009°14'0 0.0
2018-Jul-20 08:00N 44°18' E 009°14'0 0.0
2018-Jul-20 07:30N 44°18' E 009°14'0 0.0
2018-Jul-20 07:00N 44°18' E 009°14'0 0.0
2018-Jul-20 06:24N 44°18' E 009°14'0 0.0
2018-Jul-20 06:00N 44°18' E 009°14'0 0.1
2018-Jul-20 05:30N 44°18' E 009°14'1 2.4
2018-Jul-20 05:00N 44°18' E 009°15'3 6.7
2018-Jul-20 04:30N 44°15' E 009°18'3 6.0
2018-Jul-20 04:00N 44°12' E 009°19'3 6.3
2018-Jul-20 03:28N 44°08' E 009°20'3 6.2
2018-Jul-20 03:00N 44°06' E 009°21'3 6.2
2018-Jul-20 02:30N 44°03' E 009°22'3 6.3
2018-Jul-20 02:00N 43°60' E 009°23'3 6.4
2018-Jul-20 01:30N 43°57' E 009°25'3 6.8
2018-Jul-20 01:00N 43°54' E 009°28'3 6.6
2018-Jul-20 00:30N 43°51' E 009°31'3 6.6
2018-Jul-20 00:00N 43°49' E 009°33'3 6.6
2018-Jul-19 23:30N 43°46' E 009°36'3 6.4
2018-Jul-19 23:00N 43°43' E 009°39'3 6.4
2018-Jul-19 22:30N 43°41' E 009°41'3 6.2
2018-Jul-19 22:00N 43°38' E 009°44'3 6.6
2018-Jul-19 21:30N 43°36' E 009°46'3 6.6
2018-Jul-19 21:00N 43°33' E 009°49'3 6.7
2018-Jul-19 20:30N 43°32' E 009°53'3 6.9
2018-Jul-19 20:00N 43°30' E 009°57'3 6.4
2018-Jul-19 19:30N 43°30' E 010°02'3 6.5
2018-Jul-19 19:00N 43°31' E 010°06'3 6.3
2018-Jul-19 18:30N 43°31' E 010°11'4 7.1
2018-Jul-19 18:00N 43°32' E 010°15'2 3.6
2018-Jul-19 17:25N 43°33' E 010°18'0 0.0
2018-Jul-19 16:43N 43°33' E 010°18'0 0.0
2018-Jul-19 16:25N 43°33' E 010°18'0 0.0
2018-Jul-19 15:55N 43°33' E 010°18'0 0.0
2018-Jul-19 15:25N 43°33' E 010°18'0 0.0
2018-Jul-19 14:55N 43°33' E 010°18'0 0.0
2018-Jul-19 13:55N 43°33' E 010°18'0 0.0
2018-Jul-19 13:25N 43°33' E 010°18'0 0.0
2018-Jul-19 12:43N 43°33' E 010°18'0 0.0
2018-Jul-19 12:25N 43°33' E 010°18'0 0.0
2018-Jul-19 11:55N 43°33' E 010°18'0 0.0
2018-Jul-19 11:25N 43°33' E 010°18'0 0.2
2018-Jul-19 11:10N 43°33' E 010°18'0 0.2
2018-Jul-19 10:55N 43°33' E 010°18'0 0.0
2018-Jul-19 10:25N 43°33' E 010°18'0 0.0
2018-Jul-19 09:43N 43°33' E 010°18'0 0.0
2018-Jul-19 09:19N 43°33' E 010°18'0 0.0
2018-Jul-19 08:55N 43°33' E 010°18'0 0.0
2018-Jul-19 08:25N 43°33' E 010°18'0 0.0
2018-Jul-19 07:55N 43°33' E 010°18'0 0.0
2018-Jul-19 07:25N 43°33' E 010°18'0 0.0
2018-Jul-19 06:49N 43°33' E 010°18'0 0.0
2018-Jul-19 06:25N 43°33' E 010°18'0 0.0
2018-Jul-19 05:55N 43°33' E 010°18'0 0.9
2018-Jul-19 05:31N 43°33' E 010°17'4 8.5
2018-Jul-19 05:00N 43°30' E 010°13'714.5
2018-Jul-19 04:30N 43°22' E 010°12'713.5
2018-Jul-19 04:00N 43°16' E 010°09'815.2
2018-Jul-19 03:30N 43°08' E 010°07'916.5
2018-Jul-19 02:58N 42°60' E 010°05'714.1
2018-Jul-19 02:29N 42°53' E 010°03'612.7
2018-Jul-19 02:00N 42°47' E 010°02'611.7
2018-Jul-19 01:30N 42°42' E 010°05'712.9
2018-Jul-19 01:00N 42°38' E 010°12'613.0
2018-Jul-19 00:30N 42°35' E 010°20'612.8
2018-Jul-19 00:00N 42°31' E 010°27'612.4
2018-Jul-18 23:30N 42°27' E 010°33'612.7
2018-Jul-18 23:00N 42°22' E 010°38'713.0
2018-Jul-18 22:30N 42°17' E 010°43'713.1
2018-Jul-18 21:58N 42°11' E 010°49'612.9
2018-Jul-18 21:30N 42°05' E 010°52'612.4
2018-Jul-18 21:00N 42°00' E 010°56'612.4
2018-Jul-18 20:30N 41°56' E 011°03'612.2
2018-Jul-18 20:00N 41°57' E 011°11'612.3
2018-Jul-18 19:30N 41°59' E 011°18'612.4
2018-Jul-18 19:00N 42°02' E 011°26'612.4
2018-Jul-18 18:30N 42°04' E 011°34'9 0.7
2018-Jul-18 05:27N 42°07' E 011°46'2112.0
2018-Jul-18 03:43N 41°48' E 011°32'316.5
2018-Jul-18 03:30N 41°45' E 011°29'816.2
2018-Jul-18 03:00N 41°38' E 011°24'1716.6
2018-Jul-18 01:58N 41°23' E 011°14'1017.7
2018-Jul-18 01:25N 41°14' E 011°08'1024.0
2018-Jul-18 01:00N 41°06' E 011°00'2020.2 300 / 331014.010.8 24.021.1
2018-Jul-18 00:00N 40°48' E 010°48'166 6.9 300 / 271014.010.8 24.021.1
2018-Jul-17 00:00N 38°48' E 008°18'20210.6 300 / 241015.010.8 23.021.6
2018-Jul-16 04:59N 39°01' E 003°59'510.5
2018-Jul-16 04:30N 39°01' E 003°53'510.4
2018-Jul-16 04:00N 39°01' E 003°46'510.4
2018-Jul-16 03:30N 39°01' E 003°39'510.4
2018-Jul-16 03:00N 39°02' E 003°33'610.7
2018-Jul-16 02:29N 39°01' E 003°26'510.5
2018-Jul-16 02:00N 39°02' E 003°19'510.4
2018-Jul-16 01:30N 39°03' E 003°13'510.4
2018-Jul-16 01:00N 39°03' E 003°06'510.4
2018-Jul-16 00:29N 39°03' E 002°59'510.3
2018-Jul-15 23:59N 39°04' E 002°53'5 9.7
2018-Jul-15 23:30N 39°08' E 002°50'5 9.8
2018-Jul-15 23:00N 39°13' E 002°47'5 9.7
2018-Jul-15 22:30N 39°17' E 002°44'5 9.7
2018-Jul-15 21:59N 39°22' E 002°42'5 9.7
2018-Jul-15 21:30N 39°26' E 002°38'5 9.4
2018-Jul-15 21:00N 39°30' E 002°39'3 5.1
2018-Jul-15 20:28N 39°33' E 002°38'0 0.0
2018-Jul-15 19:58N 39°33' E 002°38'0 0.0
2018-Jul-15 19:28N 39°33' E 002°38'0 0.0
2018-Jul-15 18:58N 39°33' E 002°38'0 0.0
2018-Jul-15 18:28N 39°33' E 002°38'0 0.0
2018-Jul-15 17:58N 39°33' E 002°38'0 0.0
2018-Jul-15 17:22N 39°33' E 002°38'0 0.0
2018-Jul-15 16:58N 39°33' E 002°38'0 0.0
2018-Jul-15 16:28N 39°33' E 002°38'0 0.2
2018-Jul-15 15:58N 39°33' E 002°38'0 0.0
2018-Jul-15 15:28N 39°33' E 002°38'0 0.2
2018-Jul-15 14:58N 39°33' E 002°38'0 0.0
2018-Jul-15 14:22N 39°33' E 002°38'0 0.0
2018-Jul-15 13:58N 39°33' E 002°38'0 0.0
2018-Jul-15 13:28N 39°33' E 002°38'0 0.0
2018-Jul-15 12:58N 39°33' E 002°38'0 0.0
2018-Jul-15 12:28N 39°33' E 002°38'0 0.0
2018-Jul-15 11:58N 39°33' E 002°38'0 0.0
2018-Jul-15 11:28N 39°33' E 002°38'0 0.0
2018-Jul-15 10:58N 39°33' E 002°38'0 0.0
2018-Jul-15 10:28N 39°33' E 002°38'0 0.0
2018-Jul-15 09:58N 39°33' E 002°38'0 0.0
2018-Jul-15 09:28N 39°33' E 002°38'0 0.0
2018-Jul-15 08:58N 39°33' E 002°38'0 0.0
2018-Jul-15 08:28N 39°33' E 002°38'0 0.0
2018-Jul-15 07:58N 39°33' E 002°38'0 0.0
2018-Jul-15 07:28N 39°33' E 002°38'0 0.0
2018-Jul-15 06:58N 39°33' E 002°38'0 0.0
2018-Jul-15 06:28N 39°33' E 002°38'0 0.0
2018-Jul-15 05:58N 39°33' E 002°38'1 2.0
2018-Jul-15 05:30N 39°33' E 002°39'510.8
2018-Jul-15 05:00N 39°28' E 002°35'811.9
2018-Jul-15 04:21N 39°26' E 002°25'11812.6
2018-Jul-14 19:00N 39°25' W 000°07'612.2
2018-Jul-14 18:30N 39°25' W 000°15'4 8.5
2018-Jul-14 18:00N 39°27' W 000°19'0 0.1
2018-Jul-14 17:30N 39°27' W 000°19'0 0.0
2018-Jul-14 17:00N 39°27' W 000°19'0 0.0
2018-Jul-14 16:24N 39°27' W 000°19'0 0.0
2018-Jul-14 16:00N 39°27' W 000°19'0 0.0
2018-Jul-14 15:24N 39°27' W 000°19'0 0.0
2018-Jul-14 15:00N 39°27' W 000°19'0 0.0
2018-Jul-14 14:00N 39°27' W 000°19'0 0.0
2018-Jul-14 13:30N 39°27' W 000°19'0 0.0
2018-Jul-14 13:00N 39°27' W 000°19'0 0.0
2018-Jul-14 12:30N 39°27' W 000°19'0 0.0
2018-Jul-14 12:00N 39°27' W 000°19'0 0.0
2018-Jul-14 11:30N 39°27' W 000°19'0 0.0
2018-Jul-14 11:00N 39°27' W 000°19'0 0.0
2018-Jul-14 10:30N 39°27' W 000°19'0 0.0
2018-Jul-14 09:36N 39°27' W 000°19'0 0.0
2018-Jul-14 09:24N 39°27' W 000°19'0 0.0
2018-Jul-14 09:00N 39°27' W 000°19'0 0.0
2018-Jul-14 08:30N 39°27' W 000°19'0 0.0
2018-Jul-14 08:00N 39°27' W 000°19'0 0.0
2018-Jul-14 07:30N 39°27' W 000°19'0 0.0
2018-Jul-14 07:00N 39°27' W 000°19'0 0.0
2018-Jul-14 06:30N 39°27' W 000°19'0 0.0
2018-Jul-14 06:00N 39°27' W 000°19'0 0.3
2018-Jul-14 05:30N 39°27' W 000°19'4 7.6
2018-Jul-14 05:00N 39°25' W 000°15'815.1
2018-Jul-14 04:30N 39°30' W 000°08'3413.6
2018-Jul-14 02:00N 39°54' E 000°24'6713.4 360 / 91016.010.8 23.021.6
2018-Jul-13 20:59N 40°40' E 001°29'611.9
2018-Jul-13 20:28N 40°44' E 001°34'611.6
2018-Jul-13 19:58N 40°48' E 001°40'511.2
2018-Jul-13 19:30N 40°52' E 001°44'611.4
2018-Jul-13 19:00N 40°56' E 001°49'611.7
2018-Jul-13 18:30N 41°01' E 001°55'611.8
2018-Jul-13 18:00N 41°05' E 002°00'611.6
2018-Jul-13 17:30N 41°09' E 002°06'611.7
2018-Jul-13 17:00N 41°14' E 002°10'611.9
2018-Jul-13 16:30N 41°19' E 002°13'4 0.3
2018-Jul-13 03:22N 41°22' E 002°11'2 4.6
2018-Jul-13 02:57N 41°21' E 002°12'613.7
2018-Jul-13 02:30N 41°15' E 002°14'8114.7
2018-Jul-12 21:01N 39°54' E 002°15'115.4
2018-Jul-12 20:57N 39°53' E 002°15'1015.5
2018-Jul-12 20:18N 39°43' E 002°15'615.5
2018-Jul-12 19:54N 39°37' E 002°15'614.6
2018-Jul-12 19:30N 39°31' E 002°18'815.2
2018-Jul-12 18:59N 39°27' E 002°27'612.4
2018-Jul-12 18:31N 39°28' E 002°34'5 9.7
2018-Jul-12 18:01N 39°32' E 002°38'1 2.5
2018-Jul-12 17:30N 39°33' E 002°38'0 0.0
2018-Jul-12 17:00N 39°33' E 002°38'0 0.0
2018-Jul-12 16:30N 39°33' E 002°38'0 0.0
2018-Jul-12 16:00N 39°33' E 002°38'0 0.0
2018-Jul-12 15:30N 39°33' E 002°38'0 0.0
2018-Jul-12 15:00N 39°33' E 002°38'0 0.0
2018-Jul-12 14:24N 39°33' E 002°38'0 0.0
2018-Jul-12 14:00N 39°33' E 002°38'0 0.0
2018-Jul-12 13:18N 39°33' E 002°38'0 0.0
2018-Jul-12 12:54N 39°33' E 002°38'0 0.0
2018-Jul-12 12:30N 39°33' E 002°38'0 0.0
2018-Jul-12 12:00N 39°33' E 002°38'0 0.0
2018-Jul-12 11:24N 39°33' E 002°38'0 0.0
2018-Jul-12 11:00N 39°33' E 002°38'0 0.0
2018-Jul-12 10:30N 39°33' E 002°38'0 0.0
2018-Jul-12 10:00N 39°33' E 002°38'0 0.0
2018-Jul-12 09:30N 39°33' E 002°38'0 0.0
2018-Jul-12 09:00N 39°33' E 002°38'0 0.0
2018-Jul-12 08:30N 39°33' E 002°38'0 0.0
2018-Jul-12 08:00N 39°33' E 002°38'0 0.1
2018-Jul-12 07:30N 39°33' E 002°38'2 3.3
2018-Jul-12 06:59N 39°31' E 002°38'510.3
2018-Jul-12 06:31N 39°27' E 002°35'4 8.6
2018-Jul-12 06:00N 39°24' E 002°31'4 8.5
2018-Jul-12 05:30N 39°21' E 002°27'5 8.6
2018-Jul-12 04:58N 39°17' E 002°23'4 8.5
2018-Jul-12 04:30N 39°14' E 002°20'9 8.3
2018-Jul-12 03:27N 39°07' E 002°13'4 8.0
2018-Jul-12 03:00N 39°05' E 002°10'4 8.0
2018-Jul-12 02:30N 39°01' E 002°07'  
Track history (hours):
 
Tides and Currents Weather Stations Pressure Air Temp Water Temp Dewpoint Dewpoint Depression Visibility Wind Speed Wind Dir Waves Ship Positions

Seven Seas Voyager

Last reported at 2018-Jul-22 02:13 UTC. Time now 2018-Jul-22 07:06 UTC.
Position N 43°22' E 006°55'.

Length 205 m; draft 7 m.

Type: Ship. MMSI: 31151000.

Date/timePositionNaut miles runAvg speedWind from/ knotsBaromVisibWave heightAir tempDewpointWater temp
2018-Jul-22 02:13N 43°22' E 006°55'1 6.1
2018-Jul-22 02:00N 43°23' E 006°57'3 6.2
2018-Jul-22 01:30N 43°24' E 007°01'3 6.3
2018-Jul-22 01:00N 43°25' E 007°05'3 6.4
2018-Jul-22 00:30N 43°26' E 007°09'3 7.0
2018-Jul-22 00:00N 43°28' E 007°13'4 7.1
2018-Jul-21 23:30N 43°30' E 007°17'3 7.0
2018-Jul-21 23:00N 43°33' E 007°21'3 6.5
2018-Jul-21 22:30N 43°35' E 007°23'3 6.4
2018-Jul-21 22:00N 43°38' E 007°25'3 6.3
2018-Jul-21 21:30N 43°41' E 007°27'3 5.7
2018-Jul-21 21:00N 43°44' E 007°27'0 0.5
2018-Jul-21 20:28N 43°44' E 007°27'0 0.1
2018-Jul-21 19:52N 43°44' E 007°27'0 0.0
2018-Jul-21 19:28N 43°44' E 007°27'0 0.0
2018-Jul-21 18:58N 43°44' E 007°27'0 0.0
2018-Jul-21 18:28N 43°44' E 007°27'0 0.2
2018-Jul-21 18:15N 43°44' E 007°26'1 2.2
2018-Jul-21 18:00N 43°44' E 007°26'114.6
2018-Jul-21 17:58N 43°44' E 007°27'0 1.0
2018-Jul-21 17:30N 43°44' E 007°26'015.0
2018-Jul-21 17:28N 43°44' E 007°27'0 0.9
2018-Jul-21 17:25N 43°44' E 007°26'0 0.7
2018-Jul-21 17:00N 43°44' E 007°26'0 9.6
2018-Jul-21 16:58N 43°44' E 007°26'11064.7
2018-Jul-21 16:58N 43°44' E 007°27'0 0.2
2018-Jul-21 16:28N 43°44' E 007°26'012.4
2018-Jul-21 16:28N 43°44' E 007°27'1 4.8
2018-Jul-21 16:20N 43°44' E 007°26'0 0.5
2018-Jul-21 16:00N 43°44' E 007°26'046.9
2018-Jul-21 16:00N 43°44' E 007°26'0 4.1
2018-Jul-21 15:58N 43°44' E 007°27'1 1.2
2018-Jul-21 15:30N 43°44' E 007°26'056.5
2018-Jul-21 15:30N 43°44' E 007°26'113.1
2018-Jul-21 15:28N 43°44' E 007°27'1 1.2
2018-Jul-21 15:00N 43°44' E 007°26'112.0
2018-Jul-21 14:58N 43°44' E 007°27'142.0
2018-Jul-21 14:57N 43°44' E 007°26'0 1.0
2018-Jul-21 14:30N 43°44' E 007°26'056.9
2018-Jul-21 14:30N 43°44' E 007°26'116.8
2018-Jul-21 14:28N 43°44' E 007°27'0 0.1
2018-Jul-21 13:59N 43°44' E 007°26'0 0.7
2018-Jul-21 13:30N 43°44' E 007°26'027.6
2018-Jul-21 13:29N 43°44' E 007°27'0 1.3
2018-Jul-21 13:28N 43°44' E 007°27'1 1.4
2018-Jul-21 13:00N 43°44' E 007°26'113.1
2018-Jul-21 12:58N 43°44' E 007°27'026.8
2018-Jul-21 12:58N 43°44' E 007°27'0 0.1
2018-Jul-21 12:28N 43°44' E 007°27'1 8.8
2018-Jul-21 12:23N 43°44' E 007°26'0 1.1
2018-Jul-21 11:59N 43°44' E 007°26'011.8
2018-Jul-21 11:58N 43°44' E 007°27'0 0.1
2018-Jul-21 11:28N 43°44' E 007°27'0 4.1
2018-Jul-21 11:28N 43°44' E 007°27'0 0.0
2018-Jul-21 10:58N 43°44' E 007°27'1 7.4
2018-Jul-21 10:53N 43°44' E 007°26'0 0.6
2018-Jul-21 10:30N 43°44' E 007°26'0 9.2
2018-Jul-21 10:28N 43°44' E 007°27'0 0.1
2018-Jul-21 10:00N 43°44' E 007°27'0 6.5
2018-Jul-21 09:58N 43°44' E 007°26'022.7
2018-Jul-21 09:58N 43°44' E 007°27'0 0.1
2018-Jul-21 09:30N 43°44' E 007°27'188.4
2018-Jul-21 09:29N 43°44' E 007°26'119.9
2018-Jul-21 09:28N 43°44' E 007°27'1 1.5
2018-Jul-21 09:00N 43°44' E 007°26'116.4
2018-Jul-21 08:58N 43°44' E 007°27'012.5
2018-Jul-21 08:56N 43°44' E 007°26'0 1.1
2018-Jul-21 08:29N 43°44' E 007°26'121.7
2018-Jul-21 08:28N 43°44' E 007°27'0 0.5
2018-Jul-21 08:23N 43°44' E 007°27'1 1.7
2018-Jul-21 07:58N 43°44' E 007°26'153.5
2018-Jul-21 07:58N 43°44' E 007°27'0 0.3
2018-Jul-21 07:51N 43°44' E 007°27'0 0.4
2018-Jul-21 07:30N 43°44' E 007°27'0 2.3
2018-Jul-21 07:28N 43°44' E 007°27'0 6.1
2018-Jul-21 07:28N 43°44' E 007°27'0 0.1
2018-Jul-21 07:00N 43°44' E 007°27'1 8.4
2018-Jul-21 06:56N 43°44' E 007°26'1 3.6
2018-Jul-21 06:46N 43°44' E 007°27'0 0.2
2018-Jul-21 06:30N 43°44' E 007°27'0 0.5
2018-Jul-21 06:29N 43°44' E 007°27'0 1.4
2018-Jul-21 06:28N 43°44' E 007°27'0 0.1
2018-Jul-21 06:00N 43°44' E 007°27'0 1.0
2018-Jul-21 05:58N 43°44' E 007°27'111.0
2018-Jul-21 05:54N 43°44' E 007°26'1 1.7
2018-Jul-21 05:30N 43°44' E 007°27'0 1.8
2018-Jul-21 05:28N 43°44' E 007°27'2 3.8
2018-Jul-21 05:00N 43°44' E 007°29'4 7.6
2018-Jul-21 04:29N 43°43' E 007°34'4 7.5
2018-Jul-21 03:59N 43°42' E 007°39'16 7.7
2018-Jul-21 01:57N 43°38' E 008°00'4 8.1
2018-Jul-21 01:29N 43°37' E 008°05'1 2.9
2018-Jul-21 01:00N 43°36' E 008°06'4875.0 180 / 111011.010.8 24.021.1
2018-Jul-21 00:59N 43°37' E 008°11'4 8.8
2018-Jul-21 00:30N 43°38' E 008°17'4 8.8
2018-Jul-21 00:00N 43°38' E 008°23'4353.5
2018-Jul-21 00:00N 43°36' E 008°18'917.4 180 / 181011.010.8 24.021.1
2018-Jul-20 23:30N 43°41' E 008°28'4 8.3
2018-Jul-20 23:00N 43°44' E 008°32'4 8.3
2018-Jul-20 22:30N 43°47' E 008°35'4 8.3
2018-Jul-20 22:00N 43°50' E 008°40'4 8.2
2018-Jul-20 21:30N 43°53' E 008°44'4 8.3
2018-Jul-20 21:00N 43°56' E 008°48'4 8.2
2018-Jul-20 20:30N 43°58' E 008°52'4 8.1
2018-Jul-20 20:00N 44°01' E 008°56'4 7.7
2018-Jul-20 19:30N 44°04' E 008°60'4 7.7
2018-Jul-20 19:00N 44°07' E 009°03'4 7.9
2018-Jul-20 18:30N 44°10' E 009°07'4 7.9
2018-Jul-20 18:00N 44°12' E 009°11'4 7.8
2018-Jul-20 17:30N 44°15' E 009°15'3 6.1
2018-Jul-20 17:00N 44°18' E 009°14'0 0.1
2018-Jul-20 16:30N 44°18' E 009°14'0 0.1
2018-Jul-20 16:00N 44°18' E 009°14'0 0.0
2018-Jul-20 15:30N 44°18' E 009°14'0 0.0
2018-Jul-20 15:00N 44°18' E 009°14'0 0.0
2018-Jul-20 14:30N 44°18' E 009°14'0 0.0
2018-Jul-20 14:00N 44°18' E 009°14'0 0.0
2018-Jul-20 13:18N 44°18' E 009°14'0 0.0
2018-Jul-20 12:12N 44°18' E 009°14'0 0.1
2018-Jul-20 12:00N 44°18' E 009°14'0 0.0
2018-Jul-20 11:30N 44°18' E 009°14'0 0.0
2018-Jul-20 11:00N 44°18' E 009°14'0 0.0
2018-Jul-20 10:24N 44°18' E 009°14'0 0.0
2018-Jul-20 09:54N 44°18' E 009°14'0 0.0
2018-Jul-20 09:30N 44°18' E 009°14'0 0.0
2018-Jul-20 09:00N 44°18' E 009°14'0 0.0
2018-Jul-20 08:30N 44°18' E 009°14'0 0.0
2018-Jul-20 08:00N 44°18' E 009°14'0 0.0
2018-Jul-20 07:30N 44°18' E 009°14'0 0.0
2018-Jul-20 07:00N 44°18' E 009°14'0 0.0
2018-Jul-20 06:24N 44°18' E 009°14'0 0.0
2018-Jul-20 06:00N 44°18' E 009°14'0 0.1
2018-Jul-20 05:30N 44°18' E 009°14'1 2.4
2018-Jul-20 05:00N 44°18' E 009°15'3 6.7
2018-Jul-20 04:30N 44°15' E 009°18'3 6.0
2018-Jul-20 04:00N 44°12' E 009°19'3 6.3
2018-Jul-20 03:28N 44°08' E 009°20'3 6.2
2018-Jul-20 03:00N 44°06' E 009°21'3 6.2
2018-Jul-20 02:30N 44°03' E 009°22'3 6.3
2018-Jul-20 02:00N 43°60' E 009°23'3 6.4
2018-Jul-20 01:30N 43°57' E 009°25'3 6.8
2018-Jul-20 01:00N 43°54' E 009°28'3 6.6
2018-Jul-20 00:30N 43°51' E 009°31'3 6.6
2018-Jul-20 00:00N 43°49' E 009°33'3 6.6
2018-Jul-19 23:30N 43°46' E 009°36'3 6.4
2018-Jul-19 23:00N 43°43' E 009°39'3 6.4
2018-Jul-19 22:30N 43°41' E 009°41'3 6.2
2018-Jul-19 22:00N 43°38' E 009°44'3 6.6
2018-Jul-19 21:30N 43°36' E 009°46'3 6.6
2018-Jul-19 21:00N 43°33' E 009°49'3 6.7
2018-Jul-19 20:30N 43°32' E 009°53'3 6.9
2018-Jul-19 20:00N 43°30' E 009°57'3 6.4
2018-Jul-19 19:30N 43°30' E 010°02'3 6.5
2018-Jul-19 19:00N 43°31' E 010°06'3 6.3
2018-Jul-19 18:30N 43°31' E 010°11'4 7.1
2018-Jul-19 18:00N 43°32' E 010°15'2 3.6
2018-Jul-19 17:25N 43°33' E 010°18'0 0.0
2018-Jul-19 16:43N 43°33' E 010°18'0 0.0
2018-Jul-19 16:25N 43°33' E 010°18'0 0.0
2018-Jul-19 15:55N 43°33' E 010°18'0 0.0
2018-Jul-19 15:25N 43°33' E 010°18'0 0.0
2018-Jul-19 14:55N 43°33' E 010°18'0 0.0
2018-Jul-19 13:55N 43°33' E 010°18'0 0.0
2018-Jul-19 13:25N 43°33' E 010°18'0 0.0
2018-Jul-19 12:43N 43°33' E 010°18'0 0.0
2018-Jul-19 12:25N 43°33' E 010°18'0 0.0
2018-Jul-19 11:55N 43°33' E 010°18'0 0.0
2018-Jul-19 11:25N 43°33' E 010°18'0 0.2
2018-Jul-19 11:10N 43°33' E 010°18'0 0.2
2018-Jul-19 10:55N 43°33' E 010°18'0 0.0
2018-Jul-19 10:25N 43°33' E 010°18'0 0.0
2018-Jul-19 09:43N 43°33' E 010°18'0 0.0
2018-Jul-19 09:19N 43°33' E 010°18'0 0.0
2018-Jul-19 08:55N 43°33' E 010°18'0 0.0
2018-Jul-19 08:25N 43°33' E 010°18'0 0.0
2018-Jul-19 07:55N 43°33' E 010°18'0 0.0
2018-Jul-19 07:25N 43°33' E 010°18'0 0.0
2018-Jul-19 06:49N 43°33' E 010°18'0 0.0
2018-Jul-19 06:25N 43°33' E 010°18'0 0.0
2018-Jul-19 05:55N 43°33' E 010°18'0 0.9
2018-Jul-19 05:31N 43°33' E 010°17'4 8.5
2018-Jul-19 05:00N 43°30' E 010°13'714.5
2018-Jul-19 04:30N 43°22' E 010°12'713.5
2018-Jul-19 04:00N 43°16' E 010°09'815.2
2018-Jul-19 03:30N 43°08' E 010°07'916.5
2018-Jul-19 02:58N 42°60' E 010°05'714.1
2018-Jul-19 02:29N 42°53' E 010°03'612.7
2018-Jul-19 02:00N 42°47' E 010°02'611.7
2018-Jul-19 01:30N 42°42' E 010°05'712.9
2018-Jul-19 01:00N 42°38' E 010°12'613.0
2018-Jul-19 00:30N 42°35' E 010°20'612.8
2018-Jul-19 00:00N 42°31' E 010°27'612.4
2018-Jul-18 23:30N 42°27' E 010°33'612.7
2018-Jul-18 23:00N 42°22' E 010°38'713.0
2018-Jul-18 22:30N 42°17' E 010°43'713.1
2018-Jul-18 21:58N 42°11' E 010°49'612.9
2018-Jul-18 21:30N 42°05' E 010°52'612.4
2018-Jul-18 21:00N 42°00' E 010°56'612.4
2018-Jul-18 20:30N 41°56' E 011°03'612.2
2018-Jul-18 20:00N 41°57' E 011°11'612.3
2018-Jul-18 19:30N 41°59' E 011°18'612.4
2018-Jul-18 19:00N 42°02' E 011°26'612.4
2018-Jul-18 18:30N 42°04' E 011°34'9 0.7
2018-Jul-18 05:27N 42°07' E 011°46'2112.0
2018-Jul-18 03:43N 41°48' E 011°32'316.5
2018-Jul-18 03:30N 41°45' E 011°29'816.2
2018-Jul-18 03:00N 41°38' E 011°24'1716.6
2018-Jul-18 01:58N 41°23' E 011°14'1017.7
2018-Jul-18 01:25N 41°14' E 011°08'1024.0
2018-Jul-18 01:00N 41°06' E 011°00'2020.2 300 / 331014.010.8 24.021.1
2018-Jul-18 00:00N 40°48' E 010°48'166 6.9 300 / 271014.010.8 24.021.1
2018-Jul-17 00:00N 38°48' E 008°18'20210.6 300 / 241015.010.8 23.021.6
2018-Jul-16 04:59N 39°01' E 003°59'510.5
2018-Jul-16 04:30N 39°01' E 003°53'510.4
2018-Jul-16 04:00N 39°01' E 003°46'510.4
2018-Jul-16 03:30N 39°01' E 003°39'510.4
2018-Jul-16 03:00N 39°02' E 003°33'610.7
2018-Jul-16 02:29N 39°01' E 003°26'510.5
2018-Jul-16 02:00N 39°02' E 003°19'510.4
2018-Jul-16 01:30N 39°03' E 003°13'510.4
2018-Jul-16 01:00N 39°03' E 003°06'510.4
2018-Jul-16 00:29N 39°03' E 002°59'510.3
2018-Jul-15 23:59N 39°04' E 002°53'5 9.7
2018-Jul-15 23:30N 39°08' E 002°50'5 9.8
2018-Jul-15 23:00N 39°13' E 002°47'5 9.7
2018-Jul-15 22:30N 39°17' E 002°44'5 9.7
2018-Jul-15 21:59N 39°22' E 002°42'5 9.7
2018-Jul-15 21:30N 39°26' E 002°38'5 9.4
2018-Jul-15 21:00N 39°30' E 002°39'3 5.1
2018-Jul-15 20:28N 39°33' E 002°38'0 0.0
2018-Jul-15 19:58N 39°33' E 002°38'0 0.0
2018-Jul-15 19:28N 39°33' E 002°38'0 0.0
2018-Jul-15 18:58N 39°33' E 002°38'0 0.0
2018-Jul-15 18:28N 39°33' E 002°38'0 0.0
2018-Jul-15 17:58N 39°33' E 002°38'0 0.0
2018-Jul-15 17:22N 39°33' E 002°38'0 0.0
2018-Jul-15 16:58N 39°33' E 002°38'0 0.0
2018-Jul-15 16:28N 39°33' E 002°38'0 0.2
2018-Jul-15 15:58N 39°33' E 002°38'0 0.0
2018-Jul-15 15:28N 39°33' E 002°38'0 0.2
2018-Jul-15 14:58N 39°33' E 002°38'0 0.0
2018-Jul-15 14:22N 39°33' E 002°38'0 0.0
2018-Jul-15 13:58N 39°33' E 002°38'0 0.0
2018-Jul-15 13:28N 39°33' E 002°38'0 0.0
2018-Jul-15 12:58N 39°33' E 002°38'0 0.0
2018-Jul-15 12:28N 39°33' E 002°38'0 0.0
2018-Jul-15 11:58N 39°33' E 002°38'0 0.0
2018-Jul-15 11:28N 39°33' E 002°38'0 0.0
2018-Jul-15 10:58N 39°33' E 002°38'0 0.0
2018-Jul-15 10:28N 39°33' E 002°38'0 0.0
2018-Jul-15 09:58N 39°33' E 002°38'0 0.0
2018-Jul-15 09:28N 39°33' E 002°38'0 0.0
2018-Jul-15 08:58N 39°33' E 002°38'0 0.0
2018-Jul-15 08:28N 39°33' E 002°38'0 0.0
2018-Jul-15 07:58N 39°33' E 002°38'0 0.0
2018-Jul-15 07:28N 39°33' E 002°38'0 0.0
2018-Jul-15 06:58N 39°33' E 002°38'0 0.0
2018-Jul-15 06:28N 39°33' E 002°38'0 0.0
2018-Jul-15 05:58N 39°33' E 002°38'1 2.0
2018-Jul-15 05:30N 39°33' E 002°39'510.8
2018-Jul-15 05:00N 39°28' E 002°35'811.9
2018-Jul-15 04:21N 39°26' E 002°25'11812.6
2018-Jul-14 19:00N 39°25' W 000°07'612.2
2018-Jul-14 18:30N 39°25' W 000°15'4 8.5
2018-Jul-14 18:00N 39°27' W 000°19'0 0.1
2018-Jul-14 17:30N 39°27' W 000°19'0 0.0
2018-Jul-14 17:00N 39°27' W 000°19'0 0.0
2018-Jul-14 16:24N 39°27' W 000°19'0 0.0
2018-Jul-14 16:00N 39°27' W 000°19'0 0.0
2018-Jul-14 15:24N 39°27' W 000°19'0 0.0
2018-Jul-14 15:00N 39°27' W 000°19'0 0.0
2018-Jul-14 14:00N 39°27' W 000°19'0 0.0
2018-Jul-14 13:30N 39°27' W 000°19'0 0.0
2018-Jul-14 13:00N 39°27' W 000°19'0 0.0
2018-Jul-14 12:30N 39°27' W 000°19'0 0.0
2018-Jul-14 12:00N 39°27' W 000°19'0 0.0
2018-Jul-14 11:30N 39°27' W 000°19'0 0.0
2018-Jul-14 11:00N 39°27' W 000°19'0 0.0
2018-Jul-14 10:30N 39°27' W 000°19'0 0.0
2018-Jul-14 09:36N 39°27' W 000°19'0 0.0
2018-Jul-14 09:24N 39°27' W 000°19'0 0.0
2018-Jul-14 09:00N 39°27' W 000°19'0 0.0
2018-Jul-14 08:30N 39°27' W 000°19'0 0.0
2018-Jul-14 08:00N 39°27' W 000°19'0 0.0
2018-Jul-14 07:30N 39°27' W 000°19'0 0.0
2018-Jul-14 07:00N 39°27' W 000°19'0 0.0
2018-Jul-14 06:30N 39°27' W 000°19'0 0.0
2018-Jul-14 06:00N 39°27' W 000°19'0 0.3
2018-Jul-14 05:30N 39°27' W 000°19'4 7.6
2018-Jul-14 05:00N 39°25' W 000°15'815.1
2018-Jul-14 04:30N 39°30' W 000°08'3413.6
2018-Jul-14 02:00N 39°54' E 000°24'6713.4 360 / 91016.010.8 23.021.6
2018-Jul-13 20:59N 40°40' E 001°29'611.9
2018-Jul-13 20:28N 40°44' E 001°34'611.6
2018-Jul-13 19:58N 40°48' E 001°40'511.2
2018-Jul-13 19:30N 40°52' E 001°44'611.4
2018-Jul-13 19:00N 40°56' E 001°49'611.7
2018-Jul-13 18:30N 41°01' E 001°55'611.8
2018-Jul-13 18:00N 41°05' E 002°00'611.6
2018-Jul-13 17:30N 41°09' E 002°06'611.7
2018-Jul-13 17:00N 41°14' E 002°10'611.9
2018-Jul-13 16:30N 41°19' E 002°13'4 0.3
2018-Jul-13 03:22N 41°22' E 002°11'2 4.6
2018-Jul-13 02:57N 41°21' E 002°12'613.7
2018-Jul-13 02:30N 41°15' E 002°14'8114.7
2018-Jul-12 21:01N 39°54' E 002°15'115.4
2018-Jul-12 20:57N 39°53' E 002°15'1015.5
2018-Jul-12 20:18N 39°43' E 002°15'615.5
2018-Jul-12 19:54N 39°37' E 002°15'614.6
2018-Jul-12 19:30N 39°31' E 002°18'815.2
2018-Jul-12 18:59N 39°27' E 002°27'612.4
2018-Jul-12 18:31N 39°28' E 002°34'5 9.7
2018-Jul-12 18:01N 39°32' E 002°38'1 2.5
2018-Jul-12 17:30N 39°33' E 002°38'0 0.0
2018-Jul-12 17:00N 39°33' E 002°38'0 0.0
2018-Jul-12 16:30N 39°33' E 002°38'0 0.0
2018-Jul-12 16:00N 39°33' E 002°38'0 0.0
2018-Jul-12 15:30N 39°33' E 002°38'0 0.0
2018-Jul-12 15:00N 39°33' E 002°38'0 0.0
2018-Jul-12 14:24N 39°33' E 002°38'0 0.0
2018-Jul-12 14:00N 39°33' E 002°38'0 0.0
2018-Jul-12 13:18N 39°33' E 002°38'0 0.0
2018-Jul-12 12:54N 39°33' E 002°38'0 0.0
2018-Jul-12 12:30N 39°33' E 002°38'0 0.0
2018-Jul-12 12:00N 39°33' E 002°38'0 0.0
2018-Jul-12 11:24N 39°33' E 002°38'0 0.0
2018-Jul-12 11:00N 39°33' E 002°38'0 0.0
2018-Jul-12 10:30N 39°33' E 002°38'0 0.0
2018-Jul-12 10:00N 39°33' E 002°38'0 0.0
2018-Jul-12 09:30N 39°33' E 002°38'0 0.0
2018-Jul-12 09:00N 39°33' E 002°38'0 0.0
2018-Jul-12 08:30N 39°33' E 002°38'0 0.0
2018-Jul-12 08:00N 39°33' E 002°38'0 0.1
2018-Jul-12 07:30N 39°33' E 002°38'2 3.3
2018-Jul-12 06:59N 39°31' E 002°38'510.3
2018-Jul-12 06:31N 39°27' E 002°35'4 8.6
2018-Jul-12 06:00N 39°24' E 002°31'4 8.5
2018-Jul-12 05:30N 39°21' E 002°27'5 8.6
2018-Jul-12 04:58N 39°17' E 002°23'4 8.5
2018-Jul-12 04:30N 39°14' E 002°20'9 8.3
2018-Jul-12 03:27N 39°07' E 002°13'4 8.0
2018-Jul-12 03:00N 39°05' E 002°10'4 8.0
2018-Jul-12 02:30N 39°01' E 002°07'  

Dump ship's entire track history